SKBQSKBO

Guest
Details From SKBQ - Ernesto Cortissoz
To SKBO - Eldorado Intl
Flight Number -
Tags Generated
Created
Modified
Stats Distance 372 nm / 690 km
Max Altitude 0 ft / 0 m
Waypoints 4
Social Downloads 2
Likes 0
Share VATSIM

Download

Looking for another format? Having issues loading an existing format? Contact us
Advertisement - Login to hide

Notes

Generated

Route

SKBQ KIBED R2341 SKBO

ID Type Via Altitude Latitude Longitude Leg Dist Tot Dist Heading (true) Name
O SKBQ APT - 0 ft / 0 m 10.87925˚ -74.78968˚ - 0 nm - -
KIBED FIX - 0 ft / 0 m 7.13667˚ -74.43278˚ 225 nm 225 nm 175° / 175° -
R2341 FIX - 0 ft / 0 m 4.71050˚ -74.16917˚ 146 nm 372 nm 174° / 174° -
O SKBO APT - 0 ft / 0 m 4.71050˚ -74.16917˚ 0 nm 372 nm 0° / 180° -

Altitude Profile

Advertisement - Login to hide

Weather


0- 5 10 15 20 25 30 35+ Temperature / ° C

Clouds and Precipitation
Forecast for 2017-12-16 00:00 UTC. Updated 29 minutes ago

Ground ~20,000 ft ~40,000 ft Winds

SKBQ

Details ICAO SKBQ (BAQ)
Name Ernesto Cortissoz
Region Colombia
Timezone America/Bogota (UTC-5.0)
Stats Elevation 98 ft / 30 m (AMSL)
Location 10.889589° -74.780820°
Runways 1
Magnetic Variation 7.728° W

METAR

SKBQ 152100Z 02010KT CAVOK 32/21 A2976

Decode

TAF

Not found

Departure Runways

ID Width Length Bearing (true) Bearing (mag) Surface Threshold Offset Overrun Length
05 148 ft / 45 m 9,863 ft / 3,006 m 40.09° 47.82° Concrete 0 ft / 0 m 105 ft / 32 m
23 148 ft / 45 m 9,863 ft / 3,006 m 220.09° 227.82° Concrete 0 ft / 0 m 0 ft / 0 m

SKBO

Details ICAO SKBO (BOG)
Name Bogota - El Dorado Intl
Region Colombia
Timezone America/Bogota (UTC-5.0)
Stats Elevation 8,361 ft / 2,548 m (AMSL)
Location 4.701594° -74.146946°
Runways 2
Magnetic Variation 7.267° W

METAR

SKBO 152100Z 04009KT 9999 BKN020 17/09 A3024

Decode

TAF

Not found

Destination Runways

ID Width Length Bearing (true) Bearing (mag) Surface Threshold Offset Overrun Length
13L 148 ft / 45 m 12,482 ft / 3,804 m 127.21° 134.48° Asphalt 0 ft / 0 m 0 ft / 0 m
13R 148 ft / 45 m 12,494 ft / 3,808 m 127.23° 134.50° Asphalt 0 ft / 0 m 200 ft / 61 m
31L 148 ft / 45 m 12,494 ft / 3,808 m 307.23° 314.50° Asphalt 0 ft / 0 m 190 ft / 58 m
31R 148 ft / 45 m 12,482 ft / 3,804 m 307.21° 314.48° Asphalt 0 ft / 0 m 0 ft / 0 m

Approach Navaids

Runway Type Ident Frequency Range Bearing (true) Bearing (mag) Slope Elevation
13L Localiser IEDR 111.30 MHz 18 nm / 33 km 127.21° 134.48° - 8,355 ft / 2,547 m (AMSL)
13L Glidescope IEDR 111.30 MHz 10 nm / 19 km 127.21° 134.48° 3.00° 8,357 ft / 2,547 m (AMSL)
13L DME IEDR 111.30 MHz 18 nm / 33 km - - - 8,361 ft / 2,548 m (AMSL)
13R Localiser IADO 110.70 MHz 18 nm / 33 km 127.23° 134.50° - 8,355 ft / 2,547 m (AMSL)
13R Glidescope IADO 110.70 MHz 10 nm / 19 km 127.23° 134.50° 3.00° 8,361 ft / 2,548 m (AMSL)
13R DME IADO 110.70 MHz 18 nm / 33 km - - - 8,361 ft / 2,548 m (AMSL)

Popular Alternatives